createdAt,value
2022-10-12T00:01:19.813Z,9.50
2022-10-12T00:06:37.121Z,9.50
2022-10-12T00:11:52.082Z,9.40
2022-10-12T00:17:03.593Z,9.50
2022-10-12T00:22:06.208Z,9.50
2022-10-12T00:27:19.463Z,9.50
2022-10-12T00:32:30.843Z,9.50
2022-10-12T00:37:48.453Z,9.50
2022-10-12T00:43:00.164Z,9.50
2022-10-12T00:48:04.011Z,9.50
2022-10-12T00:53:18.530Z,9.50
2022-10-12T00:58:34.179Z,9.50
2022-10-12T01:03:51.186Z,9.40
2022-10-12T01:09:01.833Z,9.30
2022-10-12T01:14:06.546Z,9.10
2022-10-12T01:19:24.917Z,8.90
2022-10-12T01:24:44.557Z,8.70
2022-10-12T01:30:20.307Z,8.70
2022-10-12T01:35:29.445Z,8.60
2022-10-12T01:40:44.359Z,8.60
2022-10-12T01:46:08.616Z,8.60
2022-10-12T01:51:16.667Z,8.70
2022-10-12T01:56:25.921Z,8.80
2022-10-12T02:01:35.677Z,8.90
2022-10-12T02:06:45.748Z,8.90
2022-10-12T02:11:51.263Z,9.00
2022-10-12T02:16:59.760Z,9.00
2022-10-12T02:22:05.167Z,9.00
2022-10-12T02:27:12.422Z,9.10
2022-10-12T02:32:23.555Z,9.10
2022-10-12T02:37:34.976Z,9.10
2022-10-12T02:43:08.296Z,9.10
2022-10-12T02:48:07.910Z,9.10
2022-10-12T02:53:12.327Z,9.00
2022-10-12T02:58:15.432Z,9.00
2022-10-12T03:03:19.956Z,8.90
2022-10-12T03:08:23.240Z,8.90
2022-10-12T03:13:31.307Z,8.80
2022-10-12T03:18:39.960Z,8.80
2022-10-12T03:23:48.916Z,8.80
2022-10-12T03:28:54.744Z,8.80
2022-10-12T03:34:01.581Z,8.70
2022-10-12T03:39:04.978Z,8.70
2022-10-12T03:44:09.341Z,8.60
2022-10-12T03:49:21.507Z,8.60
2022-10-12T03:54:30.868Z,8.60
2022-10-12T03:59:34.585Z,8.50
2022-10-12T04:04:54.291Z,8.50
2022-10-12T04:10:04.632Z,8.40
2022-10-12T04:15:16.211Z,8.50
2022-10-12T04:21:01.301Z,8.40
2022-10-12T04:31:27.788Z,8.40
2022-10-12T04:36:35.561Z,8.40
2022-10-12T04:41:37.947Z,8.40
2022-10-12T04:46:53.683Z,8.30
2022-10-12T04:51:58.495Z,8.30
2022-10-12T04:57:01.128Z,8.30
2022-10-12T05:02:03.613Z,8.20
2022-10-12T05:07:28.646Z,8.20
2022-10-12T05:12:31.174Z,8.10
2022-10-12T05:17:34.017Z,8.10
2022-10-12T05:22:37.929Z,8.10
2022-10-12T05:27:40.529Z,8.10
2022-10-12T05:32:43.224Z,8.10
2022-10-12T05:37:47.051Z,8.10
2022-10-12T05:42:49.399Z,8.10
2022-10-12T05:47:51.936Z,8.10
2022-10-12T05:52:55.917Z,8.10
2022-10-12T05:57:58.625Z,8.10
2022-10-12T06:03:00.902Z,8.10
2022-10-12T06:08:04.893Z,8.20
2022-10-12T06:13:07.660Z,8.30
2022-10-12T06:18:10.090Z,8.40
2022-10-12T06:23:13.772Z,8.50
2022-10-12T06:28:17.843Z,8.60
2022-10-12T06:33:20.389Z,8.70
2022-10-12T06:38:25.077Z,9.10
2022-10-12T06:43:28.288Z,9.70
2022-10-12T06:48:30.816Z,10.40
2022-10-12T06:53:34.737Z,11.20
2022-10-12T06:58:37.336Z,11.90
2022-10-12T07:03:39.887Z,12.60
2022-10-12T07:08:43.737Z,13.50
2022-10-12T07:13:46.079Z,14.30
2022-10-12T07:18:48.441Z,15.10
2022-10-12T07:23:53.236Z,15.80
2022-10-12T07:28:55.856Z,16.10
2022-10-12T07:33:58.375Z,16.10
2022-10-12T07:39:02.533Z,16.20
2022-10-12T07:44:05.217Z,16.70
2022-10-12T07:49:07.670Z,17.30
2022-10-12T07:54:12.283Z,17.90
2022-10-12T07:59:16.735Z,18.20
2022-10-12T08:04:19.193Z,18.60
2022-10-12T08:09:22.873Z,19.00
2022-10-12T08:14:25.477Z,19.40
2022-10-12T08:19:31.727Z,19.90
2022-10-12T08:24:38.682Z,20.20
2022-10-12T08:29:41.491Z,20.50
2022-10-12T08:34:43.855Z,20.90
2022-10-12T08:39:47.606Z,21.00
2022-10-12T08:45:07.144Z,20.90
2022-10-12T08:50:16.249Z,20.50
2022-10-12T08:55:33.048Z,20.10
2022-10-12T09:00:35.376Z,19.70
2022-10-12T09:05:43.802Z,19.40
2022-10-12T09:10:59.018Z,19.20
2022-10-12T09:16:06.077Z,19.20
2022-10-12T09:21:10.703Z,19.60
2022-10-12T09:26:18.338Z,20.00
2022-10-12T09:31:37.937Z,20.30
2022-10-12T09:36:41.871Z,20.60
2022-10-12T09:41:47.642Z,21.10
2022-10-12T09:46:56.314Z,21.40
2022-10-12T09:52:00.611Z,21.70
2022-10-12T09:57:04.447Z,22.00
2022-10-12T10:02:15.894Z,22.30
2022-10-12T10:07:26.636Z,22.50
2022-10-12T10:12:30.784Z,22.80
2022-10-12T10:17:34.750Z,22.90
2022-10-12T10:22:37.095Z,23.00
2022-10-12T10:27:40.884Z,22.90
2022-10-12T10:32:44.594Z,22.80
2022-10-12T10:37:50.122Z,22.80
2022-10-12T10:42:56.751Z,22.90
2022-10-12T10:48:08.168Z,22.90
2022-10-12T10:53:20.096Z,22.80
2022-10-12T10:58:34.555Z,22.70
2022-10-12T11:03:51.414Z,22.60
2022-10-12T11:09:01.757Z,22.40
2022-10-12T11:14:15.781Z,22.20
2022-10-12T11:19:28.041Z,21.90
2022-10-12T11:24:36.688Z,21.80
2022-10-12T11:29:40.784Z,21.80
2022-10-12T11:34:49.146Z,21.70
2022-10-12T11:39:54.941Z,21.80
2022-10-12T11:45:01.507Z,22.20
2022-10-12T11:50:07.639Z,22.50
2022-10-12T11:55:35.062Z,22.60
2022-10-12T12:00:52.050Z,22.60
2022-10-12T12:05:54.260Z,22.60
2022-10-12T12:11:20.973Z,22.70
2022-10-12T12:16:31.019Z,22.80
2022-10-12T12:22:11.969Z,22.90
2022-10-12T12:27:23.566Z,23.20
2022-10-12T12:32:42.358Z,23.40
2022-10-12T12:37:45.514Z,23.40
2022-10-12T12:42:48.065Z,23.30
2022-10-12T12:47:52.178Z,23.30
2022-10-12T12:53:02.854Z,23.20
2022-10-12T12:58:38.763Z,22.90
2022-10-12T13:04:20.039Z,22.60
2022-10-12T13:09:47.405Z,22.40
2022-10-12T13:15:09.253Z,22.40
2022-10-12T13:20:19.574Z,22.30
2022-10-12T13:25:34.031Z,22.00
2022-10-12T13:30:41.671Z,21.80
2022-10-12T13:35:51.708Z,21.50
2022-10-12T13:40:58.513Z,21.20
2022-10-12T13:46:01.216Z,21.00
2022-10-12T13:51:18.653Z,20.90
2022-10-12T13:56:24.485Z,20.70
2022-10-12T14:01:27.985Z,20.50
2022-10-12T14:06:34.290Z,20.20
2022-10-12T14:11:37.646Z,20.00
2022-10-12T14:16:40.344Z,19.90
2022-10-12T14:21:47.263Z,19.60
2022-10-12T14:26:55.797Z,19.50
2022-10-12T14:32:01.334Z,19.40
2022-10-12T14:37:20.146Z,19.30
2022-10-12T14:42:28.503Z,19.20
2022-10-12T14:47:33.948Z,19.10
2022-10-12T14:52:44.108Z,19.00
2022-10-12T14:57:47.827Z,18.90
2022-10-12T15:02:51.166Z,18.70
2022-10-12T15:07:56.066Z,18.60
2022-10-12T15:12:58.655Z,18.50
2022-10-12T15:18:01.457Z,18.40
2022-10-12T15:23:06.159Z,18.40
2022-10-12T15:28:11.475Z,18.30
2022-10-12T15:33:14.379Z,18.20
2022-10-12T15:38:18.569Z,18.00
2022-10-12T15:43:22.475Z,17.90
2022-10-12T15:48:25.000Z,17.70
2022-10-12T15:53:29.933Z,17.50
2022-10-12T15:58:32.889Z,17.40
2022-10-12T16:03:35.539Z,17.20
2022-10-12T16:08:39.695Z,17.10
2022-10-12T16:13:48.017Z,17.00
2022-10-12T16:18:53.835Z,16.90
2022-10-12T16:23:57.813Z,16.70
2022-10-12T16:29:00.290Z,16.60
2022-10-12T16:34:02.878Z,16.50
2022-10-12T16:39:06.817Z,16.40
2022-10-12T16:44:09.407Z,16.20
2022-10-12T16:49:11.762Z,16.10
2022-10-12T16:54:15.803Z,16.00
2022-10-12T16:59:18.248Z,15.90
2022-10-12T17:04:20.946Z,15.80
2022-10-12T17:09:25.126Z,15.60
2022-10-12T17:14:27.973Z,15.40
2022-10-12T17:19:32.549Z,15.40
2022-10-12T17:24:38.349Z,15.30
2022-10-12T17:29:41.307Z,15.30
2022-10-12T17:34:44.962Z,15.30
2022-10-12T17:39:49.278Z,15.20
2022-10-12T17:44:51.820Z,15.10
2022-10-12T17:49:54.348Z,15.00
2022-10-12T17:54:58.224Z,14.80
2022-10-12T18:00:00.518Z,14.70
2022-10-12T18:05:03.107Z,14.60
2022-10-12T18:10:08.519Z,14.40
2022-10-12T18:15:47.118Z,14.20
2022-10-12T18:20:52.649Z,14.00
2022-10-12T18:25:56.484Z,13.80
2022-10-12T18:30:59.434Z,13.70
2022-10-12T18:36:06.712Z,13.60
2022-10-12T18:41:15.111Z,13.50
2022-10-12T18:46:18.365Z,13.50
2022-10-12T18:51:24.386Z,13.50
2022-10-12T18:56:29.070Z,13.50
2022-10-12T19:01:32.863Z,13.60
2022-10-12T19:06:38.128Z,13.70
2022-10-12T19:11:42.480Z,13.80
2022-10-12T19:16:45.742Z,13.80
2022-10-12T19:21:48.597Z,13.90
2022-10-12T19:26:52.850Z,14.00
2022-10-12T19:31:55.358Z,13.90
2022-10-12T19:36:57.821Z,13.90
2022-10-12T19:42:09.810Z,13.70
2022-10-12T19:47:18.879Z,13.50
2022-10-12T19:52:41.784Z,13.40
2022-10-12T19:57:50.540Z,13.30
2022-10-12T20:02:58.052Z,13.20
2022-10-12T20:08:07.240Z,13.30
2022-10-12T20:13:11.115Z,13.30
2022-10-12T20:18:13.523Z,13.30
2022-10-12T20:23:16.666Z,13.40
2022-10-12T20:28:21.631Z,13.50
2022-10-12T20:33:24.004Z,13.50
2022-10-12T20:38:26.576Z,13.60
2022-10-12T20:43:30.538Z,13.60
2022-10-12T20:48:33.597Z,13.60
2022-10-12T20:53:36.842Z,13.50
2022-10-12T20:58:40.732Z,13.40
2022-10-12T21:03:43.527Z,13.30
2022-10-12T21:08:49.988Z,13.20
2022-10-12T21:13:54.818Z,13.20
2022-10-12T21:18:57.305Z,13.20
2022-10-12T21:24:01.049Z,13.10
2022-10-12T21:29:05.176Z,13.00
2022-10-12T21:34:09.645Z,13.00
2022-10-12T21:39:13.801Z,13.10
2022-10-12T21:44:17.709Z,13.10
2022-10-12T21:49:20.019Z,13.00
2022-10-12T21:54:22.300Z,13.00
2022-10-12T21:59:26.153Z,12.80
2022-10-12T22:04:28.514Z,12.80
2022-10-12T22:09:30.900Z,12.60
2022-10-12T22:14:34.647Z,12.50
2022-10-12T22:19:36.981Z,12.50
2022-10-12T22:24:39.695Z,12.40
2022-10-12T22:29:43.380Z,12.30
2022-10-12T22:34:45.762Z,12.30
2022-10-12T22:39:48.056Z,12.20
2022-10-12T22:44:51.868Z,12.10
2022-10-12T22:49:54.444Z,12.00
2022-10-12T22:54:56.721Z,12.00
2022-10-12T23:00:00.444Z,11.90
2022-10-12T23:05:02.847Z,11.80
2022-10-12T23:10:05.790Z,11.70
2022-10-12T23:15:10.863Z,11.70
2022-10-12T23:20:13.266Z,11.70
2022-10-12T23:25:15.747Z,11.80
2022-10-12T23:30:19.680Z,11.70
2022-10-12T23:35:21.946Z,11.70
2022-10-12T23:40:24.310Z,11.60
2022-10-12T23:45:28.053Z,11.60
2022-10-12T23:50:30.369Z,11.60
2022-10-12T23:55:33.956Z,11.50
